Terminal Aerodrome Forecast
Issued by NWS

Home | Current Version | Previous Version | Graphics & Text | Print | Product List | Glossary On
Versions: 1 2 3 4 5 6 7 8 9 10 11 12 13 14 15 16 17 18 19 20 21 22
000
FTUS41 KCLE 251700
TAFFDY
TAF
KFDY 251727Z 2518/2618 21006KT P6SM SCT050 BKN150
     FM260900 19006KT P6SM VCSH BKN060 OVC100
     FM261300 20010KT P6SM OVC060=

USA.gov is the U.S. government's official web portal to all federal, state and local government web resources and services.